Time;durP1;ratioP1;P1;durP2;ratioP2;P2;SDS_P1;SDS_P2;PMS_P1;PMS_P2;Temp;Humidity;BMP_temperature;BMP_pressure;BME280_temperature;BME280_humidity;BME280_pressure;Samples;Min_cycle;Max_cycle;Signal;HPM_P1;HPM_P2
2020/12/17 00:00:12;;;;;;;50.77;37.60;;;6.00;89.00;;;;;;5034114;28;20026;-61
2020/12/17 00:02:37;;;;;;;53.57;38.13;;;6.00;89.20;;;;;;5034245;28;20124;-62
2020/12/17 00:05:03;;;;;;;52.50;37.60;;;6.00;89.30;;;;;;5033918;28;20033;-68
2020/12/17 00:07:29;;;;;;;53.30;36.97;;;6.10;89.60;;;;;;5033939;28;20075;-66
2020/12/17 00:09:55;;;;;;;54.53;38.47;;;6.10;88.80;;;;;;5033723;28;20033;-61
2020/12/17 00:12:20;;;;;;;56.27;41.03;;;6.10;88.60;;;;;;5034135;28;20029;-62
2020/12/17 00:14:46;;;;;;;58.20;39.83;;;6.10;88.20;;;;;;5033940;28;20033;-69
2020/12/17 00:17:12;;;;;;;55.83;38.83;;;6.10;88.30;;;;;;5033720;28;20041;-63
2020/12/17 00:19:37;;;;;;;59.27;41.80;;;6.10;88.60;;;;;;5033915;28;20032;-68
2020/12/17 00:22:03;;;;;;;59.10;41.13;;;6.10;88.50;;;;;;5033901;28;20033;-61
2020/12/17 00:24:29;;;;;;;57.60;41.90;;;6.10;88.30;;;;;;5033916;28;20025;-69
2020/12/17 00:26:54;;;;;;;55.00;38.07;;;6.10;88.40;;;;;;5033738;28;20464;-61
2020/12/17 00:29:20;;;;;;;59.70;42.83;;;6.10;88.40;;;;;;5033756;28;20026;-69
2020/12/17 00:31:46;;;;;;;61.03;42.87;;;6.10;88.40;;;;;;5033678;28;20478;-61
2020/12/17 00:34:11;;;;;;;56.37;39.87;;;6.20;88.40;;;;;;5033869;28;20037;-62
2020/12/17 00:36:37;;;;;;;60.27;39.63;;;6.20;88.50;;;;;;5033553;28;20025;-61
2020/12/17 00:39:03;;;;;;;61.50;41.53;;;6.20;88.50;;;;;;5033440;28;20075;-61
2020/12/17 00:41:29;;;;;;;58.73;41.50;;;6.20;88.50;;;;;;5033353;28;20108;-61
2020/12/17 00:43:54;;;;;;;58.67;41.50;;;6.20;88.70;;;;;;5033484;28;20036;-61
2020/12/17 00:46:20;;;;;;;63.63;43.13;;;6.20;89.00;;;;;;5033617;28;20033;-67
2020/12/17 00:48:46;;;;;;;57.13;40.73;;;6.20;89.00;;;;;;5033546;28;20053;-61
2020/12/17 00:51:11;;;;;;;57.87;40.57;;;6.20;88.90;;;;;;5033485;28;20080;-61
2020/12/17 00:53:37;;;;;;;59.83;40.90;;;6.20;88.70;;;;;;5033064;28;20033;-63
2020/12/17 00:56:04;;;;;;;58.53;40.07;;;6.20;88.80;;;;;;5033154;28;20052;-69
2020/12/17 00:58:30;;;;;;;62.63;42.50;;;6.20;88.70;;;;;;5033247;28;20491;-68
2020/12/17 01:00:56;;;;;;;55.37;40.47;;;6.20;88.50;;;;;;5033179;28;20410;-69
2020/12/17 01:03:21;;;;;;;52.27;37.47;;;6.20;88.60;;;;;;5032996;28;20025;-68
2020/12/17 01:05:47;;;;;;;62.63;38.83;;;6.20;88.80;;;;;;5033444;28;20029;-61
2020/12/17 01:08:13;;;;;;;51.37;37.70;;;6.20;88.80;;;;;;5032731;28;20026;-61
2020/12/17 01:10:39;;;;;;;51.43;37.30;;;6.20;88.90;;;;;;5032968;28;20084;-69
2020/12/17 01:13:04;;;;;;;55.47;37.37;;;6.20;88.80;;;;;;5032985;28;20080;-61
2020/12/17 01:15:30;;;;;;;54.37;36.23;;;6.30;88.70;;;;;;5033192;28;20036;-62
2020/12/17 01:17:56;;;;;;;56.43;38.37;;;6.30;88.80;;;;;;5033063;28;20037;-61
2020/12/17 01:20:21;;;;;;;54.47;39.40;;;6.30;88.40;;;;;;5033265;28;20386;-62
2020/12/17 01:22:51;;;;;;;58.60;41.13;;;6.30;88.40;;;;;;5033045;28;20032;-61
2020/12/17 01:25:16;;;;;;;51.57;38.17;;;6.30;88.50;;;;;;5032726;28;20033;-61
2020/12/17 01:27:42;;;;;;;62.60;40.33;;;6.30;88.60;;;;;;5032772;28;20044;-61
2020/12/17 01:30:08;;;;;;;63.43;40.37;;;6.30;88.30;;;;;;5032922;28;20082;-61
2020/12/17 01:32:33;;;;;;;60.37;40.07;;;6.30;88.30;;;;;;5032640;28;20028;-62
2020/12/17 01:34:59;;;;;;;64.67;40.00;;;6.30;88.40;;;;;;5032760;28;20029;-60
2020/12/17 01:37:25;;;;;;;63.87;42.13;;;6.30;88.20;;;;;;5032046;28;20386;-62
2020/12/17 01:39:50;;;;;;;62.80;40.93;;;6.20;88.30;;;;;;5032006;28;20021;-69
2020/12/17 01:42:16;;;;;;;56.00;41.50;;;6.20;88.60;;;;;;5032010;28;20025;-68
2020/12/17 01:44:43;;;;;;;56.57;40.13;;;6.20;88.80;;;;;;5032264;28;20037;-61
2020/12/17 01:47:09;;;;;;;60.87;38.40;;;6.20;88.80;;;;;;5032585;28;20083;-61
2020/12/17 01:49:35;;;;;;;60.83;41.10;;;6.20;88.70;;;;;;5032561;28;20029;-61
2020/12/17 01:52:00;;;;;;;52.73;37.73;;;6.20;88.60;;;;;;5032414;28;20440;-61
2020/12/17 01:54:26;;;;;;;53.47;38.13;;;6.30;88.70;;;;;;5032041;28;20044;-68
2020/12/17 01:56:59;;;;;;;52.17;37.50;;;6.20;88.70;;;;;;5032043;28;20025;-61
2020/12/17 01:59:26;;;;;;;51.27;37.10;;;6.20;88.80;;;;;;5029276;28;20026;-62
2020/12/17 02:01:54;;;;;;;56.27;37.40;;;6.20;88.90;;;;;;5029927;28;20033;-61
2020/12/17 02:04:22;;;;;;;55.77;39.63;;;6.30;88.80;;;;;;5030556;28;20022;-61
2020/12/17 02:06:48;;;;;;;57.97;39.43;;;6.30;88.50;;;;;;5032334;28;20055;-69
2020/12/17 02:09:18;;;;;;;52.50;38.33;;;6.20;88.40;;;;;;5032701;28;20033;-68
2020/12/17 02:11:54;;;;;;;54.20;37.47;;;6.20;88.30;;;;;;5032610;28;20047;-62
2020/12/17 02:14:21;;;;;;;50.03;37.20;;;6.20;88.20;;;;;;5032249;28;20037;-61
2020/12/17 02:16:47;;;;;;;56.80;38.77;;;6.10;88.20;;;;;;5032421;28;20490;-61
2020/12/17 02:19:13;;;;;;;54.67;38.20;;;6.10;88.10;;;;;;5033754;28;20125;-68
2020/12/17 02:21:38;;;;;;;54.70;38.87;;;6.10;88.10;;;;;;5036017;28;20030;-61
2020/12/17 02:24:04;;;;;;;53.63;38.03;;;6.10;88.30;;;;;;5036114;28;20688;-61
2020/12/17 02:26:30;;;;;;;52.23;38.67;;;6.00;88.10;;;;;;5035692;28;20040;-61
2020/12/17 02:28:56;;;;;;;54.63;38.97;;;6.00;88.20;;;;;;5035760;28;20100;-61
2020/12/17 02:31:24;;;;;;;52.23;38.80;;;6.00;88.40;;;;;;5035857;28;20136;-61
2020/12/17 02:33:51;;;;;;;55.33;38.23;;;6.00;88.60;;;;;;5035968;28;20120;-62
2020/12/17 02:36:16;;;;;;;53.30;37.27;;;6.00;88.70;;;;;;5035787;28;20099;-61
2020/12/17 02:38:43;;;;;;;54.77;37.93;;;6.00;88.80;;;;;;5035968;28;20076;-62
2020/12/17 02:41:09;;;;;;;57.97;38.93;;;6.10;88.80;;;;;;5035865;28;20029;-61
2020/12/17 02:43:35;;;;;;;54.93;38.20;;;6.10;88.70;;;;;;5035591;28;20035;-68
2020/12/17 02:46:01;;;;;;;52.87;38.13;;;6.10;88.50;;;;;;5035682;28;20021;-61
2020/12/17 02:48:27;;;;;;;52.17;38.77;;;6.10;88.40;;;;;;5035721;28;20064;-61
2020/12/17 02:50:52;;;;;;;53.70;37.73;;;6.10;88.50;;;;;;5035335;28;20029;-69
2020/12/17 02:53:18;;;;;;;50.83;35.50;;;6.10;88.70;;;;;;5035261;28;20036;-62
2020/12/17 02:55:44;;;;;;;53.23;39.03;;;6.00;89.00;;;;;;5035470;28;20449;-61
2020/12/17 02:58:09;;;;;;;57.33;38.17;;;6.10;89.00;;;;;;5035414;28;20041;-69
2020/12/17 03:00:35;;;;;;;51.40;38.03;;;6.10;89.00;;;;;;5035475;28;20025;-61
2020/12/17 03:03:01;;;;;;;53.77;39.43;;;6.10;89.10;;;;;;5035553;28;20021;-68
2020/12/17 03:05:27;;;;;;;50.97;38.10;;;6.10;89.10;;;;;;5035122;28;20022;-61
2020/12/17 03:07:52;;;;;;;60.90;40.50;;;6.10;89.20;;;;;;5035141;28;20379;-65
2020/12/17 03:10:18;;;;;;;51.87;39.30;;;6.10;89.20;;;;;;5035403;28;20478;-68
2020/12/17 03:12:44;;;;;;;54.40;38.03;;;6.10;89.30;;;;;;5035279;28;20033;-61
2020/12/17 03:15:11;;;;;;;49.17;37.43;;;6.10;89.10;;;;;;5035166;28;20025;-61
2020/12/17 03:17:37;;;;;;;54.07;38.43;;;6.20;89.30;;;;;;5035251;28;20060;-61
2020/12/17 03:20:04;;;;;;;55.10;40.17;;;6.10;89.20;;;;;;5035081;28;20112;-68
2020/12/17 03:22:30;;;;;;;50.57;40.03;;;6.20;89.10;;;;;;5035017;28;20033;-67
2020/12/17 03:24:56;;;;;;;55.73;41.40;;;6.10;89.00;;;;;;5035114;28;20041;-62
2020/12/17 03:27:22;;;;;;;52.97;39.23;;;6.10;89.10;;;;;;5035088;28;20033;-61
2020/12/17 03:29:47;;;;;;;54.23;38.33;;;6.10;89.60;;;;;;5034521;28;20463;-62
2020/12/17 03:32:13;;;;;;;55.77;38.17;;;6.10;89.10;;;;;;5034963;28;20021;-61
2020/12/17 03:34:39;;;;;;;51.00;38.10;;;6.10;89.40;;;;;;5034712;28;20060;-68
2020/12/17 03:37:04;;;;;;;55.13;39.20;;;6.10;89.30;;;;;;5034863;28;20033;-61
2020/12/17 03:39:30;;;;;;;55.33;38.83;;;6.10;89.30;;;;;;5034903;28;20029;-62
2020/12/17 03:41:56;;;;;;;53.40;38.10;;;6.10;89.30;;;;;;5034832;28;20022;-68
2020/12/17 03:44:22;;;;;;;54.47;38.20;;;6.10;89.30;;;;;;5034484;28;20025;-62
2020/12/17 03:46:47;;;;;;;55.93;38.20;;;6.10;89.10;;;;;;5034406;28;20021;-61
2020/12/17 03:49:13;;;;;;;51.03;37.93;;;6.10;89.00;;;;;;5034377;28;20029;-61
2020/12/17 03:51:39;;;;;;;52.60;38.27;;;6.10;89.10;;;;;;5034482;28;20155;-62
2020/12/17 03:54:05;;;;;;;51.80;37.70;;;6.10;89.20;;;;;;5034398;28;20041;-68
2020/12/17 03:56:31;;;;;;;51.70;37.67;;;6.10;89.40;;;;;;5034360;28;20112;-68
2020/12/17 03:58:57;;;;;;;50.80;35.63;;;6.10;89.40;;;;;;5034405;28;20583;-61
2020/12/17 04:01:22;;;;;;;49.00;34.97;;;6.10;89.40;;;;;;5034396;28;20057;-61
2020/12/17 04:03:48;;;;;;;51.03;34.60;;;6.10;89.40;;;;;;5034223;28;20036;-67
2020/12/17 04:06:14;;;;;;;47.50;34.67;;;6.10;89.30;;;;;;5034170;28;20018;-65
2020/12/17 04:08:42;;;;;;;51.00;34.60;;;6.20;89.30;;;;;;5034316;28;20026;-61
2020/12/17 04:11:11;;;;;;;47.53;35.07;;;6.20;89.20;;;;;;5034569;28;20021;-67
2020/12/17 04:13:37;;;;;;;49.87;32.50;;;6.20;89.20;;;;;;5033890;28;20030;-61
2020/12/17 04:16:03;;;;;;;50.97;35.80;;;6.20;89.10;;;;;;5033901;28;20024;-68
2020/12/17 04:18:29;;;;;;;51.73;36.53;;;6.20;89.00;;;;;;5034075;28;20441;-68
2020/12/17 04:20:56;;;;;;;44.27;33.27;;;6.20;89.00;;;;;;5033967;28;20032;-61
2020/12/17 04:23:22;;;;;;;50.90;33.20;;;6.20;88.90;;;;;;5033897;28;20025;-62
2020/12/17 04:25:47;;;;;;;44.83;32.60;;;6.10;88.80;;;;;;5033845;28;20107;-68
2020/12/17 04:28:13;;;;;;;51.30;33.73;;;6.10;88.70;;;;;;5033870;28;20118;-68
2020/12/17 04:30:39;;;;;;;54.37;34.40;;;6.10;88.80;;;;;;5034047;28;20026;-68
2020/12/17 04:33:05;;;;;;;51.93;36.37;;;6.10;88.50;;;;;;5033886;28;20104;-68
2020/12/17 04:35:31;;;;;;;48.27;33.87;;;6.10;88.30;;;;;;5033509;28;20025;-61
2020/12/17 04:37:57;;;;;;;58.57;37.73;;;6.00;88.20;;;;;;5033783;28;20104;-69
2020/12/17 04:40:22;;;;;;;44.97;33.33;;;6.00;88.10;;;;;;5033618;28;20026;-67
2020/12/17 04:42:48;;;;;;;52.07;35.37;;;6.00;88.20;;;;;;5032898;28;20036;-61
2020/12/17 04:45:15;;;;;;;47.93;36.53;;;5.90;88.00;;;;;;5033322;28;20056;-61
2020/12/17 04:47:45;;;;;;;55.87;37.53;;;5.90;88.20;;;;;;5033505;28;20036;-61
2020/12/17 04:50:14;;;;;;;55.97;37.53;;;5.90;88.50;;;;;;5033752;28;20037;-67
2020/12/17 04:52:42;;;;;;;53.50;38.83;;;5.90;88.60;;;;;;5033699;28;20378;-61
2020/12/17 04:55:09;;;;;;;59.47;37.70;;;5.90;88.70;;;;;;5033174;28;20037;-61
2020/12/17 04:57:41;;;;;;;49.57;38.50;;;5.90;88.60;;;;;;5033627;28;20033;-61
2020/12/17 05:00:07;;;;;;;55.83;37.35;;;5.90;88.50;;;;;;5033000;28;20040;-61
2020/12/17 05:02:35;;;;;;;54.50;39.00;;;5.90;88.50;;;;;;5033135;28;21885;-61
2020/12/17 05:05:01;;;;;;;51.30;36.73;;;5.90;88.30;;;;;;5033198;28;20017;-62
2020/12/17 05:07:27;;;;;;;48.43;36.67;;;5.90;88.40;;;;;;5033006;28;20026;-62
2020/12/17 05:09:53;;;;;;;50.70;37.67;;;5.80;88.20;;;;;;5032807;28;20470;-61
2020/12/17 05:12:19;;;;;;;52.40;39.17;;;5.80;88.00;;;;;;5033435;28;20071;-69
2020/12/17 05:14:45;;;;;;;53.80;38.57;;;5.70;88.10;;;;;;5033094;28;20033;-61
2020/12/17 05:17:11;;;;;;;57.83;38.80;;;5.70;88.30;;;;;;5032957;28;20120;-61
2020/12/17 05:19:37;;;;;;;49.30;37.40;;;5.70;88.40;;;;;;5032964;28;20504;-61
2020/12/17 05:22:04;;;;;;;57.83;40.07;;;5.70;88.40;;;;;;5032854;28;20104;-61
2020/12/17 05:24:30;;;;;;;51.37;39.27;;;5.70;88.80;;;;;;5032790;28;20083;-61
2020/12/17 05:26:58;;;;;;;51.67;39.07;;;5.70;89.20;;;;;;5032738;28;20045;-67
2020/12/17 05:29:25;;;;;;;59.30;40.37;;;5.70;89.00;;;;;;5032843;28;20037;-68
2020/12/17 05:31:51;;;;;;;58.90;40.90;;;5.80;88.90;;;;;;5032643;28;20045;-62
2020/12/17 05:34:17;;;;;;;50.13;38.73;;;5.80;88.60;;;;;;5032873;28;20080;-68
2020/12/17 05:36:45;;;;;;;54.97;39.53;;;5.80;89.00;;;;;;5032598;28;20436;-61
2020/12/17 05:39:19;;;;;;;59.57;41.03;;;5.80;89.00;;;;;;5032408;28;20025;-61
2020/12/17 05:41:50;;;;;;;57.17;40.60;;;5.70;89.10;;;;;;5031983;28;20018;-67
2020/12/17 05:44:20;;;;;;;54.03;39.60;;;5.70;89.50;;;;;;5032211;28;20025;-61
2020/12/17 05:46:49;;;;;;;57.67;39.53;;;5.70;89.50;;;;;;5032423;28;20025;-68
2020/12/17 05:49:24;;;;;;;56.40;40.50;;;5.70;89.50;;;;;;5032499;28;20060;-61
2020/12/17 05:52:10;;;;;;;49.33;37.73;;;5.70;89.70;;;;;;5032111;28;20033;-68
2020/12/17 05:54:39;;;;;;;51.70;37.87;;;5.80;89.70;;;;;;5035659;28;20493;-68
2020/12/17 05:57:08;;;;;;;50.43;37.10;;;5.80;89.90;;;;;;5035758;28;20021;-62
2020/12/17 05:59:34;;;;;;;50.10;37.23;;;5.80;89.80;;;;;;5035823;28;20033;-61
2020/12/17 06:02:29;;;;;;;54.23;39.27;;;5.90;89.70;;;;;;5036748;28;20473;-64
2020/12/17 06:05:03;;;;;;;58.47;38.60;;;5.80;89.50;;;;;;5036183;28;20040;-62
2020/12/17 06:07:49;;;;;;;50.33;37.60;;;5.80;89.30;;;;;;5036472;28;20029;-61
2020/12/17 06:10:20;;;;;;;53.33;37.20;;;5.80;89.60;;;;;;5036693;28;20021;-61
2020/12/17 06:12:48;;;;;;;54.23;38.00;;;5.90;89.80;;;;;;5036170;28;20053;-69
2020/12/17 06:15:20;;;;;;;50.43;37.90;;;5.80;90.00;;;;;;5036376;28;20060;-69
2020/12/17 06:17:57;;;;;;;47.90;35.70;;;5.80;90.00;;;;;;5036141;28;20041;-61
2020/12/17 06:20:24;;;;;;;47.57;36.43;;;5.80;90.00;;;;;;5036197;28;20038;-61
2020/12/17 06:23:00;;;;;;;48.27;35.67;;;5.90;90.00;;;;;;5036208;28;20021;-69
2020/12/17 06:25:31;;;;;;;46.67;33.53;;;5.90;90.00;;;;;;5035935;28;20018;-61
2020/12/17 06:27:57;;;;;;;47.47;31.60;;;6.00;89.80;;;;;;5036000;28;20021;-61
2020/12/17 06:30:25;;;;;;;45.03;31.73;;;6.00;89.70;;;;;;5035953;28;20022;-61
2020/12/17 06:32:59;;;;;;;43.27;30.97;;;6.00;89.60;;;;;;5036664;28;20041;-66
2020/12/17 06:35:39;;;;;;;42.13;31.43;;;6.00;89.60;;;;;;5035752;28;20123;-61
2020/12/17 06:38:15;;;;;;;53.70;33.00;;;6.00;89.80;;;;;;5035807;28;20090;-61
2020/12/17 06:40:42;;;;;;;48.17;32.87;;;6.00;89.60;;;;;;5035832;28;20037;-62
2020/12/17 06:43:27;;;;;;;44.13;32.33;;;6.00;89.60;;;;;;5036281;28;20409;-61
2020/12/17 06:45:53;;;;;;;47.73;33.63;;;6.00;89.90;;;;;;5035371;28;20087;-61
2020/12/17 06:48:40;;;;;;;48.47;32.57;;;6.00;90.00;;;;;;5034653;28;20761;-62
2020/12/17 06:51:38;;;;;;;44.63;29.13;;;6.00;90.00;;;;;;5034797;28;20109;-61
2020/12/17 06:54:06;;;;;;;39.53;28.50;;;6.10;90.00;;;;;;5035328;28;20083;-69
2020/12/17 06:56:32;;;;;;;43.20;28.80;;;6.00;89.90;;;;;;5035072;28;20490;-61
2020/12/17 06:59:20;;;;;;;41.77;28.03;;;6.10;90.00;;;;;;5035653;28;20099;-62
2020/12/17 07:01:47;;;;;;;45.37;30.20;;;6.10;90.30;;;;;;5035386;28;20108;-68
2020/12/17 07:04:34;;;;;;;43.63;28.40;;;6.10;90.00;;;;;;5034434;28;20104;-68
2020/12/17 07:07:21;;;;;;;45.37;27.57;;;6.20;89.90;;;;;;5033565;28;20022;-62
2020/12/17 07:09:54;;;;;;;37.73;27.13;;;6.20;89.70;;;;;;5035172;28;20044;-70
2020/12/17 07:12:35;;;;;;;33.13;25.03;;;6.20;89.60;;;;;;5035386;28;20417;-61
2020/12/17 07:15:02;;;;;;;41.13;26.70;;;6.20;89.20;;;;;;5035443;28;20056;-61
2020/12/17 07:17:28;;;;;;;35.33;25.27;;;6.20;89.00;;;;;;5035040;28;20482;-61
2020/12/17 07:19:54;;;;;;;35.87;25.37;;;6.30;88.90;;;;;;5035135;28;20063;-62
2020/12/17 07:22:20;;;;;;;35.70;24.93;;;6.30;88.80;;;;;;5034789;28;20052;-61
2020/12/17 07:24:50;;;;;;;38.33;25.30;;;6.30;88.70;;;;;;5034056;28;20475;-61
2020/12/17 07:27:22;;;;;;;38.80;25.30;;;6.30;88.40;;;;;;5034341;28;20029;-61
2020/12/17 07:29:57;;;;;;;34.95;24.63;;;6.30;88.30;;;;;;5033769;28;20029;-61
2020/12/17 07:32:33;;;;;;;36.87;23.23;;;6.30;87.90;;;;;;5034674;28;20433;-62
2020/12/17 07:35:08;;;;;;;34.53;23.47;;;6.40;87.60;;;;;;5034783;28;20091;-61
2020/12/17 07:37:52;;;;;;;32.97;23.00;;;6.40;87.40;;;;;;5033759;28;20030;-60
2020/12/17 07:40:53;;;;;;;30.23;22.30;;;6.40;87.30;;;;;;5032259;28;20481;-62
2020/12/17 07:43:20;;;;;;;33.57;22.63;;;6.50;87.40;;;;;;5009573;28;20339;-61
2020/12/17 07:45:59;;;;;;;32.50;22.93;;;6.50;87.30;;;;;;5033486;28;20482;-69
2020/12/17 07:48:38;;;;;;;34.30;22.80;;;6.50;87.20;;;;;;5033561;28;20052;-62
2020/12/17 07:51:25;;;;;;;34.60;23.37;;;6.60;87.40;;;;;;5033829;28;20030;-61
2020/12/17 07:53:52;;;;;;;32.10;22.33;;;6.60;87.40;;;;;;5033453;28;20399;-61
2020/12/17 07:56:18;;;;;;;37.23;23.67;;;6.60;87.30;;;;;;5033644;28;20041;-60
2020/12/17 07:58:44;;;;;;;37.57;23.53;;;6.60;87.50;;;;;;5034287;28;20029;-60
2020/12/17 08:01:12;;;;;;;34.13;22.73;;;6.60;87.50;;;;;;5033903;28;20032;-60
2020/12/17 08:03:41;;;;;;;33.10;22.70;;;6.70;87.40;;;;;;5034338;28;20088;-60
2020/12/17 08:06:11;;;;;;;36.17;23.40;;;6.70;87.30;;;;;;5021919;28;20103;-64
2020/12/17 08:08:39;;;;;;;37.53;25.07;;;6.70;87.40;;;;;;5013307;28;20037;-60
2020/12/17 08:11:06;;;;;;;41.10;24.80;;;6.70;87.40;;;;;;5014060;28;20030;-60
2020/12/17 08:13:32;;;;;;;39.67;24.80;;;6.80;87.50;;;;;;5013077;28;20080;-60
2020/12/17 08:15:59;;;;;;;43.33;26.33;;;6.80;88.00;;;;;;5010743;28;20125;-65
2020/12/17 08:18:26;;;;;;;41.73;25.03;;;6.80;88.30;;;;;;5011410;28;20070;-63
2020/12/17 08:21:01;;;;;;;37.87;22.90;;;6.90;88.50;;;;;;5013182;28;20060;-62
2020/12/17 08:23:28;;;;;;;32.93;22.60;;;6.90;88.50;;;;;;5012351;28;20394;-63
2020/12/17 08:25:55;;;;;;;33.40;21.50;;;6.90;88.10;;;;;;5012756;28;20029;-62
2020/12/17 08:28:21;;;;;;;33.80;23.13;;;6.90;87.80;;;;;;5012543;28;20095;-61
2020/12/17 08:30:47;;;;;;;37.50;23.90;;;6.90;88.10;;;;;;5012637;28;20514;-61
2020/12/17 08:33:13;;;;;;;37.00;22.60;;;6.90;88.90;;;;;;5011972;28;20049;-60
2020/12/17 08:35:38;;;;;;;37.17;24.10;;;6.90;88.90;;;;;;5012463;28;20025;-61
2020/12/17 08:38:08;;;;;;;32.97;22.77;;;7.00;88.40;;;;;;5012487;28;20028;-60
2020/12/17 08:40:36;;;;;;;32.70;22.67;;;7.00;88.10;;;;;;5012434;28;20029;-60
2020/12/17 08:43:11;;;;;;;35.00;23.00;;;7.00;87.80;;;;;;5012904;28;20459;-60
2020/12/17 08:45:40;;;;;;;35.43;24.50;;;7.00;87.60;;;;;;5012480;28;20176;-61
2020/12/17 08:48:14;;;;;;;33.80;23.50;;;7.00;87.20;;;;;;5011832;28;20066;-60
2020/12/17 08:50:41;;;;;;;35.60;23.13;;;7.10;87.30;;;;;;5013191;28;20025;-60
2020/12/17 08:53:23;;;;;;;39.63;22.90;;;7.10;87.10;;;;;;5012986;28;20026;-60
2020/12/17 08:56:20;;;;;;;32.43;22.20;;;7.10;86.80;;;;;;5012726;28;20026;-61
2020/12/17 08:58:49;;;;;;;32.17;22.07;;;7.20;86.60;;;;;;5012514;28;20053;-60
2020/12/17 09:01:24;;;;;;;30.27;21.40;;;7.20;86.40;;;;;;5012871;28;20074;-60
2020/12/17 09:03:51;;;;;;;30.77;21.10;;;7.20;86.30;;;;;;5013156;28;20370;-60
2020/12/17 09:06:23;;;;;;;28.30;21.80;;;7.20;86.10;;;;;;5013091;28;20018;-60
2020/12/17 09:08:49;;;;;;;32.20;21.50;;;7.30;86.30;;;;;;5012090;28;20030;-62
2020/12/17 09:11:32;;;;;;;26.03;20.83;;;7.30;86.40;;;;;;5010446;28;20109;-60
2020/12/17 09:13:58;;;;;;;;;;;7.40;86.30;;;;;;5010577;28;20033;-60
2020/12/17 09:16:25;;;;;;;27.70;20.73;;;7.40;86.00;;;;;;5010960;28;19915;-60
2020/12/17 09:18:56;;;;;;;34.33;20.80;;;7.40;86.10;;;;;;5010765;28;20064;-60
2020/12/17 09:21:22;;;;;;;35.40;21.23;;;7.50;86.10;;;;;;5013559;28;20113;-60
2020/12/17 09:23:56;;;;;;;27.83;20.83;;;7.50;86.10;;;;;;5013426;28;20105;-60
2020/12/17 09:26:22;;;;;;;26.77;20.20;;;7.50;86.10;;;;;;5013343;28;20103;-60
2020/12/17 09:28:52;;;;;;;26.43;19.60;;;7.60;86.40;;;;;;5016238;28;20061;-60
2020/12/17 09:31:28;;;;;;;27.47;20.33;;;7.60;85.90;;;;;;5017490;28;20030;-60
2020/12/17 09:34:12;;;;;;;28.20;19.73;;;7.60;85.60;;;;;;5017451;28;20070;-59
2020/12/17 09:36:40;;;;;;;28.67;18.53;;;7.70;85.70;;;;;;5017266;28;20033;-59
2020/12/17 09:39:12;;;;;;;24.07;19.20;;;7.70;85.50;;;;;;5017450;28;20026;-59
2020/12/17 09:41:39;;;;;;;22.20;16.73;;;7.70;85.40;;;;;;5017291;28;20068;-59
2020/12/17 09:44:05;;;;;;;22.27;18.13;;;7.70;85.40;;;;;;5017085;28;20026;-59
2020/12/17 09:46:42;;;;;;;29.80;18.60;;;7.80;85.30;;;;;;5016842;28;20029;-59
2020/12/17 09:49:09;;;;;;;20.87;16.30;;;7.80;85.20;;;;;;5017031;28;20415;-59
2020/12/17 09:51:34;;;;;;;26.67;18.23;;;7.80;84.90;;;;;;5016825;28;20026;-60
2020/12/17 09:54:02;;;;;;;23.90;17.87;;;7.80;84.60;;;;;;5016995;28;20376;-60
2020/12/17 09:56:28;;;;;;;23.30;17.50;;;7.90;84.50;;;;;;5017004;28;20030;-60
2020/12/17 09:58:54;;;;;;;23.97;16.67;;;7.90;84.70;;;;;;5017125;28;20030;-60
2020/12/17 10:01:20;;;;;;;24.90;18.10;;;7.90;84.70;;;;;;5016855;28;20025;-60
2020/12/17 10:03:45;;;;;;;28.10;18.87;;;7.90;84.70;;;;;;5016883;28;20390;-59
2020/12/17 10:06:11;;;;;;;25.23;18.33;;;8.00;84.80;;;;;;5016718;28;20033;-60
2020/12/17 10:08:37;;;;;;;27.90;19.97;;;7.90;84.80;;;;;;5016855;28;20478;-59
2020/12/17 10:11:04;;;;;;;26.50;19.47;;;8.00;84.80;;;;;;5016710;28;20530;-60
2020/12/17 10:13:30;;;;;;;27.67;21.23;;;8.00;84.70;;;;;;5016693;28;20081;-60
2020/12/17 10:15:56;;;;;;;28.37;19.67;;;8.00;84.70;;;;;;5016491;28;20041;-60
2020/12/17 10:18:21;;;;;;;27.03;19.17;;;8.00;84.70;;;;;;5016317;28;20058;-60
2020/12/17 10:20:47;;;;;;;29.77;21.17;;;8.00;84.60;;;;;;5016425;28;20487;-59
2020/12/17 10:23:13;;;;;;;26.80;20.27;;;8.00;84.50;;;;;;5016436;28;20049;-60
2020/12/17 10:25:38;;;;;;;26.60;19.57;;;8.10;84.60;;;;;;5016553;28;20105;-59
2020/12/17 10:28:04;;;;;;;33.43;20.23;;;8.10;84.50;;;;;;5016211;28;20108;-59
2020/12/17 10:30:30;;;;;;;25.17;19.63;;;8.10;84.50;;;;;;5016352;28;20040;-60
2020/12/17 10:32:56;;;;;;;28.60;20.50;;;8.10;84.60;;;;;;5016370;28;20383;-59
2020/12/17 10:35:23;;;;;;;29.93;19.60;;;8.10;84.50;;;;;;5016368;28;20036;-59
2020/12/17 10:37:48;;;;;;;30.33;20.07;;;8.10;84.80;;;;;;5016168;28;20026;-59
2020/12/17 10:40:14;;;;;;;33.00;20.43;;;8.20;84.80;;;;;;5015274;28;20045;-60
2020/12/17 10:42:41;;;;;;;29.13;19.37;;;8.20;84.80;;;;;;5016116;28;20097;-60
2020/12/17 10:45:08;;;;;;;26.90;18.77;;;8.20;84.80;;;;;;5016160;28;20026;-60
2020/12/17 10:47:36;;;;;;;27.27;20.73;;;8.20;84.60;;;;;;5014766;28;20076;-60
2020/12/17 10:50:07;;;;;;;25.47;19.27;;;8.20;84.60;;;;;;5014154;28;20026;-60
2020/12/17 10:52:33;;;;;;;27.13;18.93;;;8.30;84.60;;;;;;5015093;28;20025;-60
2020/12/17 10:54:59;;;;;;;22.23;18.13;;;8.30;84.80;;;;;;5015760;28;20038;-60
2020/12/17 10:57:25;;;;;;;22.90;18.30;;;8.30;84.50;;;;;;5015888;28;20030;-59
2020/12/17 10:59:50;;;;;;;25.27;18.17;;;8.30;84.30;;;;;;5015733;28;20033;-60
2020/12/17 11:02:16;;;;;;;25.57;19.03;;;8.30;84.20;;;;;;5015824;28;20137;-60
2020/12/17 11:04:43;;;;;;;30.97;20.83;;;8.30;84.20;;;;;;5015590;28;20088;-59
2020/12/17 11:07:08;;;;;;;28.13;21.50;;;8.30;84.20;;;;;;5015558;28;20022;-59
2020/12/17 11:09:34;;;;;;;31.07;23.47;;;8.40;84.30;;;;;;5015799;28;20045;-59
2020/12/17 11:12:00;;;;;;;27.63;20.43;;;8.40;84.30;;;;;;5015619;28;20084;-60
2020/12/17 11:14:26;;;;;;;26.60;21.53;;;8.40;84.30;;;;;;5015241;28;20038;-60
2020/12/17 11:16:52;;;;;;;28.47;20.57;;;8.40;84.50;;;;;;5015254;28;20030;-60
2020/12/17 11:19:18;;;;;;;27.00;19.20;;;8.50;84.50;;;;;;5015406;28;20073;-59
2020/12/17 11:21:44;;;;;;;23.33;17.90;;;8.50;84.20;;;;;;5015369;28;20041;-60
2020/12/17 11:24:10;;;;;;;24.83;18.90;;;8.50;84.20;;;;;;5015479;28;20034;-59
2020/12/17 11:26:45;;;;;;;24.97;16.87;;;8.50;84.20;;;;;;5015130;28;20105;-59
2020/12/17 11:29:12;;;;;;;24.50;18.40;;;8.50;84.00;;;;;;5015298;28;20431;-60
2020/12/17 11:31:38;;;;;;;22.80;17.47;;;8.50;83.90;;;;;;5015115;28;20029;-59
2020/12/17 11:34:05;;;;;;;20.87;16.87;;;8.60;83.70;;;;;;5015089;28;20390;-60
2020/12/17 11:36:30;;;;;;;25.57;16.30;;;8.60;83.50;;;;;;5015047;28;20022;-60
2020/12/17 11:38:56;;;;;;;22.73;17.43;;;8.60;83.30;;;;;;5015147;28;20028;-60
2020/12/17 11:41:22;;;;;;;24.57;17.93;;;8.60;83.20;;;;;;5014826;28;20044;-60
2020/12/17 11:43:47;;;;;;;24.37;17.43;;;8.60;83.20;;;;;;5015100;28;20557;-60
2020/12/17 11:46:18;;;;;;;26.87;18.57;;;8.50;83.30;;;;;;5014826;28;20033;-59
2020/12/17 11:48:43;;;;;;;23.60;16.70;;;8.60;83.70;;;;;;5014305;28;20100;-60
2020/12/17 11:51:09;;;;;;;23.93;17.90;;;8.60;83.50;;;;;;5014408;28;20164;-60
2020/12/17 11:53:35;;;;;;;24.10;18.83;;;8.60;83.50;;;;;;5012764;28;20037;-60
2020/12/17 11:56:00;;;;;;;24.37;18.23;;;8.60;83.60;;;;;;5013365;28;20034;-59
2020/12/17 11:58:26;;;;;;;27.30;18.43;;;8.60;83.70;;;;;;5014652;28;20052;-60
2020/12/17 12:00:52;;;;;;;23.43;19.27;;;8.60;83.90;;;;;;5014254;28;20500;-60
2020/12/17 12:03:17;;;;;;;26.13;20.23;;;8.60;83.90;;;;;;5012143;28;20030;-60
2020/12/17 12:05:43;;;;;;;29.70;20.27;;;8.60;83.80;;;;;;5013727;28;20060;-60
2020/12/17 12:08:09;;;;;;;25.10;20.30;;;8.70;83.80;;;;;;5014327;28;20025;-60
2020/12/17 12:10:34;;;;;;;22.80;18.13;;;8.70;83.80;;;;;;5014415;28;20033;-60
2020/12/17 12:13:00;;;;;;;29.30;18.30;;;8.70;83.50;;;;;;5014321;28;20601;-60
2020/12/17 12:15:26;;;;;;;27.40;18.13;;;8.70;83.40;;;;;;5013970;28;20117;-60
2020/12/17 12:17:52;;;;;;;23.93;18.20;;;8.80;83.50;;;;;;5013891;28;20495;-61
2020/12/17 12:20:18;;;;;;;24.83;18.90;;;8.80;83.50;;;;;;5014321;28;20041;-60
2020/12/17 12:22:45;;;;;;;22.13;17.97;;;8.80;83.30;;;;;;5013276;28;20113;-59
2020/12/17 12:25:11;;;;;;;22.70;16.93;;;8.80;83.50;;;;;;5013769;28;20446;-60
2020/12/17 12:27:36;;;;;;;22.50;17.30;;;8.80;83.20;;;;;;5013974;28;20101;-60
2020/12/17 12:30:03;;;;;;;20.43;16.73;;;8.90;82.90;;;;;;5013840;28;20033;-60
2020/12/17 12:32:29;;;;;;;27.63;16.93;;;8.90;82.70;;;;;;5013863;28;20025;-60
2020/12/17 12:34:54;;;;;;;21.20;17.03;;;8.90;82.70;;;;;;5013100;28;20038;-60
2020/12/17 12:37:20;;;;;;;28.87;17.07;;;8.90;82.60;;;;;;5013621;28;20530;-60
2020/12/17 12:39:46;;;;;;;26.80;17.27;;;8.90;82.50;;;;;;5013736;28;20076;-60
2020/12/17 12:42:11;;;;;;;23.70;17.77;;;9.00;82.60;;;;;;5013699;28;20057;-60